Terminal Aerodrome Forecast
Issued by NWS Lake Charles, LA

Home | Current Version | Previous Version | Text Only | Print | Product List | Glossary On
Versions: 1 2 3 4 5 6 7 8 9 10 11 12 13 14 15 16 17
000
FTUS44 KLCH 301700
TAFAEX
TAF
KAEX 301739Z 3018/3118 VRB05KT 6SM SHRA BKN009 OVC015
      TEMPO 3018/3022 2SM SHRA FEW009 SCT015 OVC035
     FM302200 VRB05KT P6SM VCSH SCT014 BKN025
      TEMPO 3022/3024 4SM SHRA FEW020 BKN030 OVC045
     FM310300 VRB04KT P6SM VCSH SCT013 BKN030 OVC050
     FM310800 17007KT P6SM SCT013 BKN020 OVC200=

USA.gov is the U.S. government's official web portal to all federal, state and local government web resources and services.